Time;durP1;ratioP1;P1;durP2;ratioP2;P2;SDS_P1;SDS_P2;PMS_P1;PMS_P2;Temp;Humidity;BMP_temperature;BMP_pressure;BME280_temperature;BME280_humidity;BME280_pressure;Samples;Min_cycle;Max_cycle;Signal;HPM_P1;HPM_P2
2022/03/03 00:00:09;;;;;;;6.20;5.53;;;;;;;;;;5019520;28;20046;-58
2022/03/03 00:02:34;;;;;;;7.03;5.57;;;;;;;;;;5000196;28;20428;-64
2022/03/03 00:05:00;;;;;;;5.95;5.40;;;;;;;;;;5016678;28;20040;-59
2022/03/03 00:07:25;;;;;;;6.63;5.72;;;;;;;;;;5020242;28;20116;-64
2022/03/03 00:09:51;;;;;;;6.25;5.68;;;;;;;;;;5019816;28;20455;-59
2022/03/03 00:12:16;;;;;;;6.68;4.57;;;;;;;;;;5019845;28;20419;-59
2022/03/03 00:14:42;;;;;;;5.10;4.60;;;;;;;;;;5018172;28;20034;-59
2022/03/03 00:17:07;;;;;;;4.85;4.43;;;;;;;;;;5016358;28;20684;-59
2022/03/03 00:19:33;;;;;;;5.43;5.03;;;;;;;;;;5018741;28;20038;-59
2022/03/03 00:21:58;;;;;;;7.47;6.88;;;;;;;;;;5018217;28;20552;-59
2022/03/03 00:24:24;;;;;;;9.80;7.13;;;;;;;;;;5017469;28;20079;-59
2022/03/03 00:26:49;;;;;;;4.47;4.07;;;;;;;;;;5017851;28;20041;-59
2022/03/03 00:29:14;;;;;;;17.13;7.18;;;;;;;;;;5018329;28;20095;-59
2022/03/03 00:31:40;;;;;;;6.22;5.65;;;;;;;;;;5018579;28;20052;-59
2022/03/03 00:34:05;;;;;;;5.15;4.65;;;;;;;;;;5010107;28;20121;-59
2022/03/03 00:36:31;;;;;;;5.47;4.97;;;;;;;;;;5020801;28;20025;-59
2022/03/03 00:38:56;;;;;;;5.78;5.18;;;;;;;;;;5018073;28;20109;-59
2022/03/03 00:41:22;;;;;;;6.72;5.28;;;;;;;;;;5020055;28;20065;-59
2022/03/03 00:43:47;;;;;;;5.38;4.90;;;;;;;;;;5003284;28;20042;-59
2022/03/03 00:46:13;;;;;;;5.55;5.05;;;;;;;;;;5017175;28;20037;-59
2022/03/03 00:48:38;;;;;;;5.78;5.18;;;;;;;;;;5018629;28;20434;-59
2022/03/03 00:51:06;;;;;;;5.38;4.88;;;;;;;;;;5016303;28;20025;-59
2022/03/03 00:53:33;;;;;;;6.60;6.00;;;;;;;;;;5021993;28;20026;-64
2022/03/03 00:55:59;;;;;;;5.15;4.70;;;;;;;;;;5021623;28;20022;-64
2022/03/03 00:58:24;;;;;;;6.35;5.75;;;;;;;;;;5023830;28;20037;-59
2022/03/03 01:00:49;;;;;;;4.90;4.47;;;;;;;;;;5023351;28;20571;-59
2022/03/03 01:03:15;;;;;;;6.28;5.65;;;;;;;;;;5023422;28;20092;-59
2022/03/03 01:05:40;;;;;;;4.95;4.55;;;;;;;;;;5022910;28;20025;-65
2022/03/03 01:08:09;;;;;;;6.95;5.95;;;;;;;;;;5022742;28;20034;-65
2022/03/03 01:10:35;;;;;;;6.30;5.03;;;;;;;;;;5020054;28;20033;-64
2022/03/03 01:13:01;;;;;;;5.40;4.90;;;;;;;;;;5020674;28;20107;-65
2022/03/03 01:15:26;;;;;;;5.88;5.28;;;;;;;;;;5008361;28;20451;-64
2022/03/03 01:17:51;;;;;;;6.38;5.78;;;;;;;;;;5021695;28;20409;-59
2022/03/03 01:20:17;;;;;;;7.55;6.15;;;;;;;;;;5020604;28;20541;-59
2022/03/03 01:22:42;;;;;;;5.53;5.03;;;;;;;;;;5024191;28;20049;-59
2022/03/03 01:25:08;;;;;;;5.57;4.95;;;;;;;;;;5020825;28;20568;-59
2022/03/03 01:27:33;;;;;;;5.43;5.00;;;;;;;;;;5021429;28;20038;-59
2022/03/03 01:29:59;;;;;;;9.07;5.90;;;;;;;;;;5020143;28;20037;-59
2022/03/03 01:32:24;;;;;;;5.13;4.63;;;;;;;;;;5020248;28;20161;-59
2022/03/03 01:34:49;;;;;;;5.00;4.50;;;;;;;;;;5022204;28;20041;-59
2022/03/03 01:37:15;;;;;;;6.32;5.32;;;;;;;;;;5020488;28;20064;-58
2022/03/03 01:39:40;;;;;;;6.15;5.55;;;;;;;;;;5020770;28;20034;-58
2022/03/03 01:42:06;;;;;;;5.03;4.63;;;;;;;;;;5018526;28;20482;-58
2022/03/03 01:44:31;;;;;;;9.38;5.28;;;;;;;;;;5022939;28;20545;-59
2022/03/03 01:46:58;;;;;;;4.88;4.38;;;;;;;;;;5023002;28;20060;-64
2022/03/03 01:49:25;;;;;;;7.07;5.50;;;;;;;;;;5021616;28;20030;-65
2022/03/03 01:51:50;;;;;;;6.93;6.22;;;;;;;;;;5018271;28;20586;-64
2022/03/03 01:54:16;;;;;;;7.20;6.45;;;;;;;;;;5024437;28;20117;-66
2022/03/03 01:56:42;;;;;;;6.40;5.75;;;;;;;;;;5023218;28;20030;-65
2022/03/03 01:59:09;;;;;;;6.05;5.38;;;;;;;;;;5021288;28;20046;-64
2022/03/03 02:01:36;;;;;;;5.72;4.88;;;;;;;;;;5019909;28;20471;-66
2022/03/03 02:04:06;;;;;;;7.70;6.40;;;;;;;;;;5018456;28;20037;-66
2022/03/03 02:06:31;;;;;;;6.35;5.75;;;;;;;;;;5017130;28;20208;-64
2022/03/03 02:08:57;;;;;;;5.15;4.55;;;;;;;;;;5021161;28;20193;-59
2022/03/03 02:11:22;;;;;;;6.28;5.75;;;;;;;;;;5020984;28;20034;-59
2022/03/03 02:13:48;;;;;;;8.10;5.45;;;;;;;;;;5021750;28;20025;-59
2022/03/03 02:16:13;;;;;;;6.43;5.55;;;;;;;;;;5004626;28;20880;-59
2022/03/03 02:18:40;;;;;;;9.80;5.63;;;;;;;;;;5021252;28;20057;-59
2022/03/03 02:21:05;;;;;;;5.65;5.15;;;;;;;;;;5021925;28;20427;-67
2022/03/03 02:23:31;;;;;;;6.45;5.85;;;;;;;;;;5017790;28;20120;-60
2022/03/03 02:25:56;;;;;;;7.22;6.40;;;;;;;;;;5020776;28;20033;-60
2022/03/03 02:28:21;;;;;;;6.65;5.72;;;;;;;;;;5020573;28;20034;-59
2022/03/03 02:30:47;;;;;;;4.68;4.22;;;;;;;;;;5020317;28;20077;-59
2022/03/03 02:33:12;;;;;;;16.08;5.82;;;;;;;;;;4995656;28;20117;-59
2022/03/03 02:35:38;;;;;;;5.70;5.20;;;;;;;;;;5018663;28;20033;-66
2022/03/03 02:38:04;;;;;;;6.25;5.65;;;;;;;;;;5019110;28;20053;-67
2022/03/03 02:40:29;;;;;;;4.32;3.92;;;;;;;;;;5019787;28;20042;-59
2022/03/03 02:42:55;;;;;;;4.70;4.18;;;;;;;;;;5022903;28;20115;-59
2022/03/03 02:45:21;;;;;;;5.55;5.05;;;;;;;;;;5020149;28;20059;-60
2022/03/03 02:47:48;;;;;;;6.85;6.00;;;;;;;;;;5019245;28;20049;-60
2022/03/03 02:50:16;;;;;;;8.02;6.47;;;;;;;;;;5022628;28;20037;-60
2022/03/03 02:52:42;;;;;;;6.57;5.97;;;;;;;;;;5017700;28;20034;-60
2022/03/03 02:55:08;;;;;;;6.65;5.38;;;;;;;;;;5018071;28;20065;-59
2022/03/03 03:00:17;;;;;;;5.10;4.60;;;;;;;;;;5019959;28;20044;-59
2022/03/03 03:02:43;;;;;;;7.97;5.57;;;;;;;;;;5020263;28;20033;-59
2022/03/03 03:05:10;;;;;;;5.47;4.82;;;;;;;;;;5018493;28;20048;-59
2022/03/03 03:07:35;;;;;;;5.07;4.63;;;;;;;;;;5021190;28;20041;-59
2022/03/03 03:10:02;;;;;;;7.32;5.00;;;;;;;;;;5021250;28;20041;-59
2022/03/03 03:12:28;;;;;;;11.07;6.20;;;;;;;;;;5010549;28;20029;-59
2022/03/03 03:14:53;;;;;;;5.40;4.90;;;;;;;;;;5021616;28;20041;-59
2022/03/03 03:17:18;;;;;;;6.63;6.07;;;;;;;;;;5021129;28;20100;-60
2022/03/03 03:19:44;;;;;;;8.23;5.80;;;;;;;;;;5017998;28;20041;-60
2022/03/03 03:22:09;;;;;;;5.53;5.03;;;;;;;;;;5018664;28;20029;-60
2022/03/03 03:24:35;;;;;;;5.63;5.05;;;;;;;;;;5015994;28;20458;-60
2022/03/03 03:27:00;;;;;;;6.78;6.18;;;;;;;;;;5019294;28;20029;-60
2022/03/03 03:29:25;;;;;;;6.05;5.45;;;;;;;;;;5017936;28;20052;-60
2022/03/03 03:31:51;;;;;;;7.03;6.32;;;;;;;;;;5017356;28;20041;-60
2022/03/03 03:34:16;;;;;;;10.35;5.43;;;;;;;;;;5017626;28;20033;-60
2022/03/03 03:36:42;;;;;;;6.55;5.95;;;;;;;;;;5022296;28;20045;-59
2022/03/03 03:39:07;;;;;;;5.32;4.82;;;;;;;;;;5015802;28;20053;-60
2022/03/03 03:41:33;;;;;;;7.38;6.45;;;;;;;;;;5017642;28;20084;-60
2022/03/03 03:43:58;;;;;;;6.72;5.30;;;;;;;;;;5015377;28;20157;-59
2022/03/03 03:46:24;;;;;;;7.65;6.00;;;;;;;;;;5014076;28;20045;-60
2022/03/03 03:48:49;;;;;;;6.53;5.93;;;;;;;;;;5019704;28;20087;-59
2022/03/03 03:51:15;;;;;;;5.75;5.25;;;;;;;;;;5008924;28;20029;-59
2022/03/03 03:53:41;;;;;;;8.20;6.32;;;;;;;;;;5021134;28;20123;-59
2022/03/03 03:56:06;;;;;;;6.35;5.72;;;;;;;;;;5018187;28;20129;-59
2022/03/03 03:58:32;;;;;;;6.25;5.65;;;;;;;;;;5017103;28;20370;-60
2022/03/03 04:00:57;;;;;;;6.03;5.00;;;;;;;;;;5022707;28;20458;-60
2022/03/03 04:03:22;;;;;;;5.68;5.10;;;;;;;;;;5019511;28;20128;-67
2022/03/03 04:05:48;;;;;;;5.45;4.95;;;;;;;;;;5018423;28;20044;-65
2022/03/03 04:08:14;;;;;;;8.68;6.18;;;;;;;;;;5019163;28;20033;-67
2022/03/03 04:10:40;;;;;;;6.68;5.85;;;;;;;;;;5019360;28;20370;-66
2022/03/03 04:13:05;;;;;;;6.78;5.78;;;;;;;;;;5015399;28;20034;-59
2022/03/03 04:15:31;;;;;;;4.38;3.97;;;;;;;;;;5017818;28;20116;-59
2022/03/03 04:17:56;;;;;;;9.25;6.45;;;;;;;;;;5023217;28;20044;-59
2022/03/03 04:20:23;;;;;;;6.82;6.22;;;;;;;;;;5017554;28;20036;-59
2022/03/03 04:22:49;;;;;;;7.57;5.75;;;;;;;;;;5018325;28;20065;-59
2022/03/03 04:25:14;;;;;;;7.82;6.90;;;;;;;;;;5015782;28;20042;-59
2022/03/03 04:27:40;;;;;;;6.35;5.72;;;;;;;;;;5013032;28;20044;-59
2022/03/03 04:30:09;;;;;;;6.10;5.60;;;;;;;;;;5012483;28;20119;-66
2022/03/03 04:32:35;;;;;;;5.47;5.05;;;;;;;;;;5022875;28;20040;-67
2022/03/03 04:35:01;;;;;;;6.55;5.93;;;;;;;;;;5023060;28;20105;-67
2022/03/03 04:37:27;;;;;;;5.97;5.47;;;;;;;;;;5021188;28;20083;-59
2022/03/03 04:39:52;;;;;;;5.78;5.28;;;;;;;;;;5025053;28;20033;-66
2022/03/03 04:42:17;;;;;;;6.32;5.72;;;;;;;;;;5003783;28;20117;-67
2022/03/03 04:44:43;;;;;;;6.10;5.13;;;;;;;;;;5023563;28;20125;-67
2022/03/03 04:47:08;;;;;;;7.25;6.50;;;;;;;;;;5012739;28;20080;-59
2022/03/03 04:49:34;;;;;;;9.73;6.40;;;;;;;;;;5021823;28;20041;-59
2022/03/03 04:51:59;;;;;;;12.68;7.53;;;;;;;;;;5006193;28;20046;-60
2022/03/03 04:54:24;;;;;;;6.55;5.93;;;;;;;;;;4997147;28;20030;-58
2022/03/03 04:56:51;;;;;;;11.93;6.15;;;;;;;;;;5020162;28;20042;-60
2022/03/03 04:59:16;;;;;;;6.63;5.63;;;;;;;;;;5021561;28;20088;-59
2022/03/03 05:01:42;;;;;;;8.65;6.88;;;;;;;;;;5020539;28;20466;-59
2022/03/03 05:04:07;;;;;;;6.32;5.70;;;;;;;;;;5022004;28;20037;-60
2022/03/03 05:06:33;;;;;;;6.07;5.57;;;;;;;;;;5023711;28;20030;-59
2022/03/03 05:08:58;;;;;;;5.90;5.30;;;;;;;;;;5019630;28;20069;-58
2022/03/03 05:11:23;;;;;;;6.47;5.88;;;;;;;;;;5003227;28;20044;-60
2022/03/03 05:13:49;;;;;;;4.78;4.38;;;;;;;;;;5024266;28;20120;-59
2022/03/03 05:16:14;;;;;;;5.63;5.10;;;;;;;;;;5020021;28;20138;-60
2022/03/03 05:18:39;;;;;;;7.22;6.40;;;;;;;;;;5025565;28;20084;-60
2022/03/03 05:21:05;;;;;;;6.10;5.55;;;;;;;;;;5021848;28;20076;-59
2022/03/03 05:23:31;;;;;;;5.88;5.38;;;;;;;;;;5019366;28;20061;-59
2022/03/03 05:25:56;;;;;;;6.47;5.88;;;;;;;;;;5020822;28;20022;-60
2022/03/03 05:28:22;;;;;;;8.23;5.10;;;;;;;;;;5022602;28;20044;-59
2022/03/03 05:30:47;;;;;;;5.00;4.57;;;;;;;;;;5020865;28;20045;-60
2022/03/03 05:33:12;;;;;;;6.68;5.45;;;;;;;;;;5022884;28;20045;-60
2022/03/03 05:35:40;;;;;;;6.45;5.85;;;;;;;;;;5018889;28;20025;-59
2022/03/03 05:38:05;;;;;;;5.63;5.13;;;;;;;;;;5021742;28;20037;-60
2022/03/03 05:40:31;;;;;;;6.07;5.53;;;;;;;;;;5017715;28;20037;-59
2022/03/03 05:42:56;;;;;;;5.00;4.55;;;;;;;;;;5018814;28;20073;-59
2022/03/03 05:45:22;;;;;;;6.68;5.93;;;;;;;;;;5020846;28;20072;-59
2022/03/03 05:47:48;;;;;;;7.45;6.75;;;;;;;;;;5003515;28;20041;-60
2022/03/03 05:50:15;;;;;;;7.18;6.40;;;;;;;;;;5021845;28;20121;-59
2022/03/03 05:52:40;;;;;;;5.70;5.20;;;;;;;;;;5022490;28;20040;-58
2022/03/03 05:55:06;;;;;;;6.95;5.25;;;;;;;;;;5018947;28;20030;-58
2022/03/03 05:57:35;;;;;;;4.90;4.50;;;;;;;;;;5020909;28;20038;-60
2022/03/03 06:00:14;;;;;;;8.05;6.65;;;;;;;;;;5020468;28;20110;-60
2022/03/03 06:02:51;;;;;;;7.07;6.43;;;;;;;;;;5019971;28;20033;-59
2022/03/03 06:05:19;;;;;;;5.50;5.00;;;;;;;;;;5017250;28;20061;-58
2022/03/03 06:07:49;;;;;;;6.85;5.60;;;;;;;;;;5019855;28;20061;-59
2022/03/03 06:10:20;;;;;;;6.10;5.50;;;;;;;;;;5000445;28;20030;-59
2022/03/03 06:12:51;;;;;;;5.97;5.40;;;;;;;;;;5020472;28;20488;-59
2022/03/03 06:15:21;;;;;;;5.25;4.80;;;;;;;;;;5020775;28;20103;-59
2022/03/03 06:17:48;;;;;;;8.80;7.10;;;;;;;;;;5020346;28;20448;-59
2022/03/03 06:20:13;;;;;;;6.03;5.40;;;;;;;;;;5021070;28;20053;-67
2022/03/03 06:22:39;;;;;;;5.43;4.93;;;;;;;;;;5019133;28;20071;-66
2022/03/03 06:25:05;;;;;;;5.97;5.38;;;;;;;;;;5023871;28;20040;-66
2022/03/03 06:27:31;;;;;;;8.48;4.97;;;;;;;;;;5020357;28;20045;-66
2022/03/03 06:29:57;;;;;;;6.43;5.78;;;;;;;;;;5019318;28;20029;-65
2022/03/03 06:32:22;;;;;;;5.35;4.85;;;;;;;;;;5018173;28;20375;-66
2022/03/03 06:34:48;;;;;;;7.43;5.28;;;;;;;;;;5022937;28;20129;-59
2022/03/03 06:37:13;;;;;;;5.38;4.88;;;;;;;;;;5020555;28;20025;-59
2022/03/03 06:39:39;;;;;;;7.40;5.82;;;;;;;;;;5020913;28;20037;-59
2022/03/03 06:42:04;;;;;;;9.50;7.03;;;;;;;;;;5018502;28;20362;-59
2022/03/03 06:44:30;;;;;;;5.13;4.63;;;;;;;;;;5018137;28;21035;-59
2022/03/03 06:46:55;;;;;;;4.68;4.22;;;;;;;;;;5020227;28;20055;-65
2022/03/03 06:49:21;;;;;;;5.00;4.50;;;;;;;;;;5019187;28;20992;-60
2022/03/03 06:51:53;;;;;;;5.97;5.40;;;;;;;;;;5021500;28;20030;-60
2022/03/03 06:54:21;;;;;;;6.72;5.65;;;;;;;;;;5023225;28;20047;-65
2022/03/03 06:56:52;;;;;;;6.35;5.80;;;;;;;;;;5019968;28;20036;-65
2022/03/03 06:59:21;;;;;;;5.88;4.70;;;;;;;;;;5024459;28;20048;-66
2022/03/03 07:01:48;;;;;;;5.43;4.93;;;;;;;;;;5020459;28;20379;-66
2022/03/03 07:04:13;;;;;;;5.60;4.75;;;;;;;;;;5021393;28;20504;-64
2022/03/03 07:06:40;;;;;;;6.03;5.43;;;;;;;;;;5020103;28;20036;-66
2022/03/03 07:09:06;;;;;;;7.78;5.95;;;;;;;;;;5021176;28;20037;-66
2022/03/03 07:11:31;;;;;;;5.25;4.75;;;;;;;;;;5008677;28;20113;-60
2022/03/03 07:13:58;;;;;;;5.32;4.80;;;;;;;;;;5019903;28;20041;-65
2022/03/03 07:16:45;;;;;;;7.75;6.50;;;;;;;;;;5016953;28;20076;-65
2022/03/03 07:19:26;;;;;;;6.20;5.55;;;;;;;;;;5019443;28;20470;-65
2022/03/03 07:21:57;;;;;;;6.65;5.95;;;;;;;;;;5019644;28;20128;-65
2022/03/03 07:24:33;;;;;;;5.03;4.55;;;;;;;;;;5017699;28;20037;-65
2022/03/03 07:27:04;;;;;;;6.80;6.10;;;;;;;;;;5017812;28;20057;-65
2022/03/03 07:29:33;;;;;;;5.38;4.88;;;;;;;;;;5001115;28;20089;-65
2022/03/03 07:32:04;;;;;;;5.97;5.38;;;;;;;;;;5018381;28;20071;-64
2022/03/03 07:34:32;;;;;;;4.45;4.05;;;;;;;;;;5018330;28;20076;-65
2022/03/03 07:37:04;;;;;;;6.30;5.13;;;;;;;;;;5018322;28;20474;-64
2022/03/03 07:39:39;;;;;;;4.70;4.30;;;;;;;;;;5021523;28;20037;-64
2022/03/03 07:42:07;;;;;;;4.72;4.03;;;;;;;;;;5019488;28;20037;-64
2022/03/03 07:44:34;;;;;;;4.57;4.18;;;;;;;;;;5016988;28;20092;-65
2022/03/03 07:47:01;;;;;;;4.75;4.32;;;;;;;;;;5023233;28;20470;-65
2022/03/03 07:49:27;;;;;;;4.65;3.95;;;;;;;;;;5020756;28;20033;-62
2022/03/03 07:51:53;;;;;;;4.78;4.28;;;;;;;;;;5018149;28;20462;-63
2022/03/03 07:54:18;;;;;;;4.97;4.30;;;;;;;;;;5018956;28;20041;-64
2022/03/03 07:56:47;;;;;;;4.72;4.32;;;;;;;;;;5015242;28;20411;-63
2022/03/03 07:59:16;;;;;;;4.30;3.72;;;;;;;;;;5019628;28;20038;-64
2022/03/03 08:01:44;;;;;;;6.68;5.32;;;;;;;;;;5001435;28;20037;-64
2022/03/03 08:04:11;;;;;;;5.07;4.03;;;;;;;;;;5005039;28;20339;-63
2022/03/03 08:06:36;;;;;;;4.18;3.78;;;;;;;;;;5002048;28;20030;-64
2022/03/03 08:09:02;;;;;;;4.70;4.20;;;;;;;;;;5018968;28;20037;-64
2022/03/03 08:11:29;;;;;;;5.47;4.97;;;;;;;;;;5017347;28;20055;-63
2022/03/03 08:13:56;;;;;;;4.40;3.88;;;;;;;;;;5018409;28;20613;-64
2022/03/03 08:16:22;;;;;;;5.65;5.00;;;;;;;;;;5008068;28;20115;-64
2022/03/03 08:18:48;;;;;;;6.22;5.25;;;;;;;;;;5020547;28;20483;-64
2022/03/03 08:21:14;;;;;;;4.72;4.28;;;;;;;;;;5019889;28;20042;-60
2022/03/03 08:23:42;;;;;;;5.10;4.47;;;;;;;;;;5018448;28;20033;-60
2022/03/03 08:26:11;;;;;;;4.85;4.45;;;;;;;;;;5018459;28;20065;-60
2022/03/03 08:28:37;;;;;;;7.35;6.63;;;;;;;;;;5018318;28;20033;-60
2022/03/03 08:31:07;;;;;;;6.70;5.38;;;;;;;;;;5020316;28;20021;-60
2022/03/03 08:33:57;;;;;;;5.13;4.65;;;;;;;;;;5016788;28;20052;-60
2022/03/03 08:36:33;;;;;;;5.32;4.80;;;;;;;;;;5018631;28;20033;-60
2022/03/03 08:39:04;;;;;;;5.10;4.63;;;;;;;;;;5020468;28;20049;-60
2022/03/03 08:41:35;;;;;;;6.30;5.15;;;;;;;;;;5017250;28;20041;-60
2022/03/03 08:44:02;;;;;;;4.72;4.30;;;;;;;;;;5015653;28;20176;-65
2022/03/03 08:46:31;;;;;;;6.88;6.30;;;;;;;;;;5005627;28;20510;-65
2022/03/03 08:49:00;;;;;;;5.95;5.45;;;;;;;;;;5021776;28;20080;-65
2022/03/03 08:51:27;;;;;;;6.88;5.70;;;;;;;;;;5009462;28;20471;-60
2022/03/03 08:53:53;;;;;;;9.43;5.18;;;;;;;;;;5000688;28;20033;-60
2022/03/03 08:56:19;;;;;;;6.63;6.03;;;;;;;;;;5020038;28;20509;-65
2022/03/03 08:58:44;;;;;;;7.72;6.10;;;;;;;;;;5020135;28;20037;-65
2022/03/03 09:01:10;;;;;;;6.22;5.60;;;;;;;;;;5018137;28;20819;-66
2022/03/03 09:03:35;;;;;;;5.93;5.43;;;;;;;;;;5022191;28;20467;-65
2022/03/03 09:06:01;;;;;;;6.60;5.75;;;;;;;;;;5023069;28;20041;-65
2022/03/03 09:08:26;;;;;;;7.13;6.43;;;;;;;;;;5019310;28;20168;-66
2022/03/03 09:10:52;;;;;;;8.23;6.28;;;;;;;;;;5016476;28;20026;-66
2022/03/03 09:13:17;;;;;;;7.10;6.45;;;;;;;;;;5021961;28;20033;-66
2022/03/03 09:15:43;;;;;;;6.22;5.68;;;;;;;;;;5020407;28;20036;-64
2022/03/03 09:18:08;;;;;;;5.53;5.03;;;;;;;;;;5015223;28;20037;-65
2022/03/03 09:20:35;;;;;;;11.15;6.68;;;;;;;;;;5019195;28;20041;-65
2022/03/03 09:23:01;;;;;;;5.40;4.90;;;;;;;;;;5019699;28;20145;-65
2022/03/03 09:25:27;;;;;;;6.47;5.88;;;;;;;;;;5019001;28;20037;-66
2022/03/03 09:27:52;;;;;;;6.28;5.63;;;;;;;;;;5018202;28;20033;-65
2022/03/03 09:30:18;;;;;;;7.60;6.53;;;;;;;;;;5017638;28;20037;-66
2022/03/03 09:32:44;;;;;;;7.15;4.97;;;;;;;;;;5019761;28;20403;-65
2022/03/03 09:35:10;;;;;;;5.82;5.32;;;;;;;;;;5022287;28;20052;-65
2022/03/03 09:37:35;;;;;;;6.70;6.07;;;;;;;;;;5020031;28;20080;-66
2022/03/03 09:40:01;;;;;;;6.22;5.68;;;;;;;;;;5018215;28;20200;-66
2022/03/03 09:42:31;;;;;;;7.53;5.63;;;;;;;;;;5015775;28;20044;-66
2022/03/03 09:44:58;;;;;;;6.77;5.87;;;;;;;;;;5017203;28;20049;-65
2022/03/03 09:47:24;;;;;;;7.20;6.50;;;;;;;;;;5019569;28;20122;-60
2022/03/03 09:49:49;;;;;;;5.82;5.32;;;;;;;;;;5017899;28;20088;-61
2022/03/03 09:52:17;;;;;;;7.43;6.75;;;;;;;;;;5016717;28;20046;-60
2022/03/03 09:54:43;;;;;;;5.80;5.30;;;;;;;;;;5016923;28;20038;-61
2022/03/03 09:57:09;;;;;;;9.15;6.45;;;;;;;;;;5020384;28;20045;-61
2022/03/03 09:59:34;;;;;;;6.53;5.75;;;;;;;;;;5015666;28;20046;-65
2022/03/03 10:02:04;;;;;;;6.00;5.50;;;;;;;;;;5016721;28;20048;-65
2022/03/03 10:04:30;;;;;;;7.75;5.90;;;;;;;;;;5017022;28;20037;-65
2022/03/03 10:06:55;;;;;;;7.50;6.72;;;;;;;;;;5016586;28;20075;-61
2022/03/03 10:09:21;;;;;;;6.03;5.45;;;;;;;;;;5021869;28;20375;-65
2022/03/03 10:11:49;;;;;;;10.20;7.57;;;;;;;;;;5024754;28;20049;-66
2022/03/03 10:14:25;;;;;;;5.22;4.72;;;;;;;;;;5022952;28;20029;-66
2022/03/03 10:16:50;;;;;;;6.75;6.10;;;;;;;;;;5020027;28;20657;-60
2022/03/03 10:19:16;;;;;;;5.88;5.35;;;;;;;;;;5020405;28;20029;-60
2022/03/03 10:21:43;;;;;;;11.15;7.20;;;;;;;;;;5022005;28;20025;-61
2022/03/03 10:24:24;;;;;;;7.70;6.65;;;;;;;;;;5018733;28;20137;-65
2022/03/03 10:27:05;;;;;;;7.00;6.28;;;;;;;;;;5020332;28;20083;-65
2022/03/03 10:29:32;;;;;;;6.88;6.35;;;;;;;;;;5020692;28;20779;-66
2022/03/03 10:31:58;;;;;;;12.00;6.22;;;;;;;;;;5006303;28;20045;-65
2022/03/03 10:34:28;;;;;;;7.90;6.93;;;;;;;;;;5021014;28;20125;-66
2022/03/03 10:36:59;;;;;;;7.50;6.80;;;;;;;;;;5022717;28;20029;-65
2022/03/03 10:39:37;;;;;;;6.03;5.53;;;;;;;;;;5020800;28;20117;-65
2022/03/03 10:42:12;;;;;;;10.77;6.60;;;;;;;;;;5019419;28;20049;-60
2022/03/03 10:44:37;;;;;;;8.43;7.53;;;;;;;;;;5021254;28;20065;-65
2022/03/03 10:47:11;;;;;;;7.25;6.65;;;;;;;;;;5020540;28;20471;-60
2022/03/03 10:49:45;;;;;;;13.10;6.55;;;;;;;;;;5021218;28;20048;-66
2022/03/03 10:52:21;;;;;;;9.00;7.05;;;;;;;;;;5020002;28;20045;-61
2022/03/03 10:55:14;;;;;;;8.60;6.90;;;;;;;;;;5022113;28;20621;-60
2022/03/03 10:57:41;;;;;;;7.88;7.18;;;;;;;;;;4984740;28;20045;-60
2022/03/03 11:00:07;;;;;;;6.70;5.53;;;;;;;;;;5018397;28;20030;-61
2022/03/03 11:02:34;;;;;;;7.68;6.93;;;;;;;;;;5016086;28;20042;-64
2022/03/03 11:05:00;;;;;;;6.47;5.72;;;;;;;;;;5020290;28;20358;-65
2022/03/03 11:07:25;;;;;;;6.20;5.68;;;;;;;;;;5019466;28;20044;-64
2022/03/03 11:09:51;;;;;;;8.63;7.03;;;;;;;;;;5001048;28;20059;-60
2022/03/03 11:12:19;;;;;;;7.63;6.18;;;;;;;;;;5017853;28;20614;-60
2022/03/03 11:14:45;;;;;;;7.57;6.35;;;;;;;;;;5017986;28;20368;-60
2022/03/03 11:17:10;;;;;;;7.57;6.75;;;;;;;;;;5018439;28;20036;-60
2022/03/03 11:19:38;;;;;;;6.60;6.00;;;;;;;;;;5019406;28;20030;-61
2022/03/03 11:22:03;;;;;;;6.07;5.47;;;;;;;;;;5015075;28;20368;-60
2022/03/03 11:24:31;;;;;;;7.05;6.25;;;;;;;;;;5016294;28;20048;-67
2022/03/03 11:27:00;;;;;;;6.93;5.95;;;;;;;;;;5016571;28;20945;-67
2022/03/03 11:29:27;;;;;;;5.85;5.35;;;;;;;;;;5018687;28;20053;-66
2022/03/03 11:32:05;;;;;;;6.72;6.10;;;;;;;;;;5015007;28;20358;-65
2022/03/03 11:34:32;;;;;;;7.10;6.30;;;;;;;;;;5014527;28;20041;-65
2022/03/03 11:37:18;;;;;;;6.85;6.18;;;;;;;;;;5016315;28;20267;-62
2022/03/03 11:39:45;;;;;;;7.93;7.28;;;;;;;;;;5017294;28;20056;-62
2022/03/03 11:42:55;;;;;;;8.85;6.43;;;;;;;;;;5016816;28;20068;-63
2022/03/03 11:45:31;;;;;;;5.82;5.32;;;;;;;;;;4926136;29;21000;-62
2022/03/03 11:48:22;;;;;;;6.65;6.05;;;;;;;;;;5006911;28;20065;-65
2022/03/03 11:50:49;;;;;;;7.50;6.15;;;;;;;;;;5019374;28;20120;-66
2022/03/03 11:53:18;;;;;;;7.25;6.40;;;;;;;;;;5017579;28;20114;-66
2022/03/03 11:55:56;;;;;;;8.02;7.22;;;;;;;;;;5015698;28;20041;-64
2022/03/03 11:58:27;;;;;;;6.50;5.95;;;;;;;;;;5018113;28;20034;-64
2022/03/03 12:00:59;;;;;;;7.05;6.35;;;;;;;;;;5016652;28;20037;-66
2022/03/03 12:03:25;;;;;;;5.97;5.47;;;;;;;;;;5001852;28;20060;-65
2022/03/03 12:06:08;;;;;;;6.20;5.60;;;;;;;;;;5014109;28;20530;-64
2022/03/03 12:08:36;;;;;;;6.28;5.78;;;;;;;;;;5016679;28;20044;-64
2022/03/03 12:11:14;;;;;;;7.10;6.00;;;;;;;;;;5018262;28;20064;-64
2022/03/03 12:13:40;;;;;;;6.75;6.15;;;;;;;;;;5018800;28;20073;-65
2022/03/03 12:16:26;;;;;;;6.00;5.40;;;;;;;;;;5014983;28;20065;-64
2022/03/03 12:18:58;;;;;;;6.20;5.70;;;;;;;;;;5015311;28;20051;-65
2022/03/03 12:21:33;;;;;;;6.25;5.75;;;;;;;;;;5015408;28;20029;-64
2022/03/03 12:24:27;;;;;;;7.05;6.45;;;;;;;;;;5017599;28;20045;-64
2022/03/03 12:26:56;;;;;;;7.20;6.50;;;;;;;;;;5016577;28;20095;-64
2022/03/03 12:29:35;;;;;;;6.93;6.35;;;;;;;;;;5018317;28;20036;-65
2022/03/03 12:32:25;;;;;;;6.88;6.25;;;;;;;;;;5018575;28;20041;-62
2022/03/03 12:34:55;;;;;;;8.80;5.75;;;;;;;;;;5015749;28;20029;-62
2022/03/03 12:37:21;;;;;;;5.72;5.22;;;;;;;;;;5016017;28;20061;-62
2022/03/03 12:39:51;;;;;;;7.25;6.45;;;;;;;;;;5013833;28;20061;-62
2022/03/03 12:42:28;;;;;;;7.82;6.70;;;;;;;;;;5015786;28;20126;-63
2022/03/03 12:45:02;;;;;;;7.35;6.75;;;;;;;;;;5013825;28;20041;-65
2022/03/03 12:47:33;;;;;;;7.00;6.30;;;;;;;;;;5012813;28;20095;-65
2022/03/03 12:50:08;;;;;;;6.32;5.82;;;;;;;;;;5017978;28;20033;-64
2022/03/03 12:52:35;;;;;;;6.18;5.68;;;;;;;;;;5020333;28;20095;-64
2022/03/03 12:55:01;;;;;;;6.35;5.80;;;;;;;;;;5016251;28;20038;-65
2022/03/03 12:57:31;;;;;;;7.15;6.45;;;;;;;;;;5017089;28;20045;-65
2022/03/03 12:59:58;;;;;;;5.57;5.15;;;;;;;;;;5019173;28;20033;-65
2022/03/03 13:02:24;;;;;;;10.07;6.30;;;;;;;;;;5023785;28;20049;-65
2022/03/03 13:04:50;;;;;;;6.35;5.80;;;;;;;;;;5020655;28;20030;-65
2022/03/03 13:07:17;;;;;;;7.03;6.03;;;;;;;;;;5019053;28;20067;-65
2022/03/03 13:09:57;;;;;;;8.25;6.95;;;;;;;;;;5020408;28;20069;-65
2022/03/03 13:12:23;;;;;;;6.22;5.72;;;;;;;;;;5008859;28;20041;-61
2022/03/03 13:14:59;;;;;;;6.45;4.97;;;;;;;;;;5021304;28;20137;-60
2022/03/03 13:17:25;;;;;;;5.65;5.15;;;;;;;;;;5019423;28;20029;-61
2022/03/03 13:19:51;;;;;;;6.47;5.97;;;;;;;;;;5015118;28;20581;-64
2022/03/03 13:22:16;;;;;;;6.18;5.68;;;;;;;;;;5016937;28;20117;-64
2022/03/03 13:24:42;;;;;;;6.35;5.85;;;;;;;;;;5016689;28;20478;-64
2022/03/03 13:27:07;;;;;;;6.95;6.35;;;;;;;;;;5016597;28;20033;-64
2022/03/03 13:29:36;;;;;;;5.57;5.07;;;;;;;;;;5018656;28;20606;-64
2022/03/03 13:32:09;;;;;;;6.70;6.10;;;;;;;;;;5019596;28;20042;-64
2022/03/03 13:34:36;;;;;;;5.95;5.30;;;;;;;;;;5019157;28;20084;-64
2022/03/03 13:37:13;;;;;;;7.30;6.60;;;;;;;;;;5018806;28;20112;-64
2022/03/03 13:39:39;;;;;;;5.55;5.05;;;;;;;;;;5018643;28;20116;-64
2022/03/03 13:42:20;;;;;;;5.90;5.40;;;;;;;;;;5002599;28;20184;-64
2022/03/03 13:44:48;;;;;;;6.82;5.97;;;;;;;;;;5017864;28;20152;-64
2022/03/03 13:47:14;;;;;;;7.93;6.35;;;;;;;;;;5017294;28;20055;-64
2022/03/03 13:49:42;;;;;;;7.18;6.47;;;;;;;;;;5019000;28;20037;-65
2022/03/03 13:52:27;;;;;;;8.23;5.65;;;;;;;;;;5021361;28;20037;-64
2022/03/03 13:55:02;;;;;;;7.50;6.55;;;;;;;;;;5017742;28;20482;-63
2022/03/03 13:57:37;;;;;;;6.18;5.53;;;;;;;;;;5017272;28;20108;-63
2022/03/03 14:00:17;;;;;;;10.27;5.65;;;;;;;;;;5018089;28;20029;-63
2022/03/03 14:03:15;;;;;;;6.28;5.78;;;;;;;;;;5019265;28;20030;-65
2022/03/03 14:05:53;;;;;;;7.90;7.20;;;;;;;;;;5021397;28;20057;-64
2022/03/03 14:08:44;;;;;;;10.60;6.47;;;;;;;;;;5017799;28;20034;-64
2022/03/03 14:11:22;;;;;;;6.00;5.50;;;;;;;;;;5022633;28;20068;-65
2022/03/03 14:13:55;;;;;;;5.57;5.07;;;;;;;;;;5023759;28;20426;-64
2022/03/03 14:16:23;;;;;;;6.35;5.75;;;;;;;;;;5022658;28;20033;-66
2022/03/03 14:18:51;;;;;;;8.80;7.28;;;;;;;;;;5022630;28;20045;-63
2022/03/03 14:21:17;;;;;;;7.00;5.30;;;;;;;;;;5018536;28;20171;-62
2022/03/03 14:23:43;;;;;;;6.45;5.85;;;;;;;;;;5022249;28;20029;-61
2022/03/03 14:26:12;;;;;;;5.57;5.10;;;;;;;;;;5020841;28;20038;-62
2022/03/03 14:28:39;;;;;;;10.57;6.35;;;;;;;;;;5019529;28;20042;-62
2022/03/03 14:31:05;;;;;;;6.20;5.70;;;;;;;;;;5024239;28;20038;-62
2022/03/03 14:33:30;;;;;;;5.82;5.30;;;;;;;;;;5020504;28;20037;-62
2022/03/03 14:35:56;;;;;;;6.70;6.10;;;;;;;;;;5021917;28;20030;-61
2022/03/03 14:38:23;;;;;;;6.80;6.20;;;;;;;;;;5018932;28;20030;-63
2022/03/03 14:40:48;;;;;;;6.70;6.10;;;;;;;;;;5017889;28;20041;-64
2022/03/03 14:43:16;;;;;;;8.18;6.40;;;;;;;;;;5019150;28;20042;-62
2022/03/03 14:45:42;;;;;;;6.45;5.95;;;;;;;;;;5019562;28;20048;-62
2022/03/03 14:48:07;;;;;;;6.70;6.15;;;;;;;;;;5019389;28;20037;-62
2022/03/03 14:50:35;;;;;;;7.82;5.90;;;;;;;;;;5020687;28;21303;-62